createdAt,value
2019-04-11T00:01:56.322Z,19.17
2019-04-11T00:04:26.166Z,17.95
2019-04-11T00:06:56.100Z,18.13
2019-04-11T00:09:25.513Z,19.10
2019-04-11T00:11:57.805Z,18.50
2019-04-11T00:14:27.582Z,17.47
2019-04-11T00:16:57.388Z,19.03
2019-04-11T00:19:27.380Z,18.95
2019-04-11T00:21:57.361Z,21.30
2019-04-11T00:24:27.489Z,20.43
2019-04-11T00:26:57.019Z,21.45
2019-04-11T00:29:26.153Z,21.07
2019-04-11T00:31:55.466Z,21.47
2019-04-11T00:34:24.727Z,19.00
2019-04-11T00:36:56.641Z,20.23
2019-04-11T00:39:26.079Z,19.80
2019-04-11T00:41:58.660Z,19.23
2019-04-11T00:44:27.702Z,19.57
2019-04-11T00:46:56.796Z,20.20
2019-04-11T00:49:26.198Z,17.10
2019-04-11T00:51:56.182Z,19.20
2019-04-11T00:54:26.829Z,18.95
2019-04-11T00:56:56.752Z,19.92
2019-04-11T00:59:26.674Z,21.67
2019-04-11T01:01:56.881Z,22.13
2019-04-11T01:04:26.006Z,21.40
2019-04-11T01:06:55.091Z,21.50
2019-04-11T01:09:24.277Z,18.20
2019-04-11T01:11:54.317Z,19.37
2019-04-11T01:14:23.770Z,20.70
2019-04-11T01:16:54.231Z,20.13
2019-04-11T01:19:24.676Z,23.60
2019-04-11T01:21:57.929Z,21.35
2019-04-11T01:24:28.174Z,23.13
2019-04-11T01:26:57.353Z,23.67
2019-04-11T01:29:27.299Z,24.63
2019-04-11T01:31:58.631Z,25.93
2019-04-11T01:34:28.741Z,27.23
2019-04-11T01:36:58.251Z,27.87
2019-04-11T01:39:38.026Z,29.10
2019-04-11T01:42:07.113Z,26.73
2019-04-11T01:44:36.737Z,26.50
2019-04-11T01:47:08.730Z,24.40
2019-04-11T01:49:38.593Z,26.60
2019-04-11T01:52:07.971Z,26.97
2019-04-11T01:54:43.793Z,25.03
2019-04-11T01:57:13.872Z,23.95
2019-04-11T01:59:43.793Z,23.87
2019-04-11T02:02:30.747Z,24.43
2019-04-11T02:05:01.275Z,23.27
2019-04-11T02:07:30.988Z,22.93
2019-04-11T02:10:00.209Z,22.80
2019-04-11T02:12:29.133Z,23.77
2019-04-11T02:14:59.784Z,25.77
2019-04-11T02:17:43.964Z,24.53
2019-04-11T02:20:13.245Z,25.67
2019-04-11T02:22:44.082Z,25.82
2019-04-11T02:25:30.378Z,25.02
2019-04-11T02:28:01.176Z,24.33
2019-04-11T02:30:31.324Z,25.02
2019-04-11T02:33:01.103Z,25.10
2019-04-11T02:35:42.803Z,23.75
2019-04-11T02:38:14.108Z,24.82
2019-04-11T02:40:44.984Z,24.10
2019-04-11T02:43:15.244Z,24.85
2019-04-11T02:46:09.012Z,26.23
2019-04-11T02:48:24.521Z,26.23
2019-04-11T02:50:54.260Z,26.20
2019-04-11T02:53:24.498Z,26.83
2019-04-11T02:56:00.636Z,26.07
2019-04-11T02:58:31.781Z,25.97
2019-04-11T03:01:05.111Z,26.95
2019-04-11T03:03:32.110Z,28.07
2019-04-11T03:06:18.090Z,28.92
2019-04-11T03:08:49.034Z,27.17
2019-04-11T03:11:19.086Z,27.15
2019-04-11T03:13:50.481Z,27.47
2019-04-11T03:16:32.737Z,30.33
2019-04-11T03:19:05.296Z,28.83
2019-04-11T03:21:23.480Z,28.10
2019-04-11T03:23:51.935Z,28.20
2019-04-11T03:26:22.915Z,28.75
2019-04-11T03:28:56.261Z,25.53
2019-04-11T03:34:53.557Z,28.10
2019-04-11T03:39:15.374Z,28.50
2019-04-11T03:41:50.106Z,29.40
2019-04-11T03:44:06.618Z,30.77
2019-04-11T03:46:42.142Z,29.40
2019-04-11T03:49:06.315Z,32.17
2019-04-11T03:51:30.603Z,33.53
2019-04-11T03:54:01.071Z,34.10
2019-04-11T03:56:30.430Z,29.80
2019-04-11T03:58:59.523Z,32.07
2019-04-11T04:01:29.634Z,30.85
2019-04-11T04:04:00.622Z,31.80
2019-04-11T04:06:31.018Z,29.57
2019-04-11T04:09:02.703Z,29.13
2019-04-11T04:11:34.691Z,30.70
2019-04-11T04:14:19.402Z,28.87
2019-04-11T04:16:54.345Z,27.30
2019-04-11T04:19:27.062Z,26.67
2019-04-11T04:22:08.164Z,26.37
2019-04-11T04:24:40.079Z,28.47
2019-04-11T04:27:09.912Z,29.03
2019-04-11T04:29:38.724Z,26.17
2019-04-11T04:32:08.428Z,25.20
2019-04-11T04:34:37.752Z,24.80
2019-04-11T04:37:07.910Z,26.90
2019-04-11T04:39:39.166Z,28.27
2019-04-11T04:42:17.375Z,36.63
2019-04-11T04:44:40.432Z,35.47
2019-04-11T04:47:18.012Z,31.27
2019-04-11T04:49:40.960Z,30.00
2019-04-11T04:52:12.462Z,28.77
2019-04-11T04:54:41.080Z,28.70
2019-04-11T04:57:12.939Z,27.35
2019-04-11T04:59:42.359Z,27.17
2019-04-11T05:02:12.655Z,28.37
2019-04-11T05:04:41.112Z,35.68
2019-04-11T05:07:11.564Z,41.87
2019-04-11T05:09:40.634Z,37.70
2019-04-11T05:12:09.852Z,35.40
2019-04-11T05:14:39.405Z,34.20
2019-04-11T05:17:08.761Z,37.00
2019-04-11T05:19:38.339Z,39.37
2019-04-11T05:22:08.463Z,33.53
2019-04-11T05:24:38.904Z,31.27
2019-04-11T05:27:08.326Z,35.10
2019-04-11T05:29:37.610Z,30.37
2019-04-11T05:32:07.262Z,32.80
2019-04-11T05:34:37.147Z,37.37
2019-04-11T05:37:08.925Z,37.73
2019-04-11T05:39:38.164Z,35.47
2019-04-11T05:42:07.150Z,36.95
2019-04-11T05:44:38.329Z,43.93
2019-04-11T05:47:06.889Z,49.77
2019-04-11T05:49:40.845Z,47.10
2019-04-11T05:52:12.295Z,43.03
2019-04-11T05:54:46.421Z,41.87
2019-04-11T05:57:13.373Z,39.20
2019-04-11T05:59:48.749Z,40.37
2019-04-11T06:02:31.044Z,36.38
2019-04-11T06:05:08.937Z,33.00
2019-04-11T06:07:55.597Z,29.23
2019-04-11T06:10:43.672Z,25.43
2019-04-11T06:13:20.596Z,22.15
2019-04-11T06:15:55.589Z,20.93
2019-04-11T06:18:32.077Z,17.33
2019-04-11T06:21:17.940Z,18.48
2019-04-11T06:23:49.853Z,17.82
2019-04-11T06:26:30.324Z,18.27
2019-04-11T06:29:14.702Z,16.93
2019-04-11T06:31:35.716Z,18.33
2019-04-11T06:34:07.443Z,18.30
2019-04-11T06:36:48.119Z,22.07
2019-04-11T06:39:29.398Z,19.02
2019-04-11T06:42:05.943Z,16.30
2019-04-11T06:44:52.907Z,14.95
2019-04-11T06:47:41.001Z,15.48
2019-04-11T06:50:29.150Z,14.97
2019-04-11T06:52:58.476Z,16.05
2019-04-11T06:55:35.042Z,15.87
2019-04-11T06:58:08.560Z,14.65
2019-04-11T07:00:41.059Z,16.07
2019-04-11T07:03:19.616Z,16.32
2019-04-11T07:05:42.707Z,15.83
2019-04-11T07:08:11.812Z,15.97
2019-04-11T07:10:43.154Z,16.12
2019-04-11T07:13:14.283Z,15.13
2019-04-11T07:15:46.443Z,15.40
2019-04-11T07:18:35.682Z,14.73
2019-04-11T07:21:08.421Z,15.77
2019-04-11T07:23:55.547Z,16.20
2019-04-11T07:26:29.474Z,15.43
2019-04-11T07:29:12.966Z,15.38
2019-04-11T07:31:44.227Z,16.17
2019-04-11T07:34:24.231Z,15.08
2019-04-11T07:37:12.585Z,15.45
2019-04-11T07:40:03.292Z,17.07
2019-04-11T07:42:52.971Z,17.02
2019-04-11T07:45:32.254Z,15.93
2019-04-11T07:48:19.340Z,17.17
2019-04-11T07:50:48.854Z,17.23
2019-04-11T07:53:19.749Z,17.43
2019-04-11T07:55:48.959Z,18.00
2019-04-11T07:58:23.792Z,16.87
2019-04-11T08:00:56.733Z,17.20
2019-04-11T08:03:46.957Z,16.75
2019-04-11T08:06:33.387Z,17.20
2019-04-11T08:09:13.207Z,16.63
2019-04-11T08:12:02.431Z,14.70
2019-04-11T08:14:36.956Z,15.13
2019-04-11T08:17:09.362Z,16.07
2019-04-11T08:19:53.165Z,16.73
2019-04-11T08:22:36.301Z,16.40
2019-04-11T08:25:18.299Z,14.70
2019-04-11T08:27:56.800Z,15.05
2019-04-11T08:30:22.524Z,14.27
2019-04-11T08:32:55.424Z,16.23
2019-04-11T08:35:28.427Z,17.33
2019-04-11T08:38:12.346Z,15.03
2019-04-11T08:40:43.672Z,13.60
2019-04-11T08:43:17.137Z,13.83
2019-04-11T08:45:51.909Z,14.47
2019-04-11T08:48:21.303Z,12.43
2019-04-11T08:50:52.533Z,13.30
2019-04-11T08:53:40.878Z,13.90
2019-04-11T08:56:10.613Z,15.80
2019-04-11T08:58:47.159Z,15.43
2019-04-11T09:01:24.223Z,12.03
2019-04-11T09:04:03.067Z,13.13
2019-04-11T09:06:26.439Z,10.27
2019-04-11T09:08:59.835Z,13.50
2019-04-11T09:11:37.864Z,7.60
2019-04-11T09:14:13.973Z,12.40
2019-04-11T09:16:45.760Z,10.55
2019-04-11T09:19:23.003Z,11.03
2019-04-11T09:22:13.114Z,13.88
2019-04-11T09:24:54.733Z,13.45
2019-04-11T09:27:24.877Z,13.80
2019-04-11T09:30:15.684Z,13.43
2019-04-11T09:33:02.540Z,13.30
2019-04-11T09:38:04.366Z,12.68
2019-04-11T09:40:36.200Z,11.25
2019-04-11T09:43:13.647Z,11.10
2019-04-11T09:45:46.061Z,11.93
2019-04-11T09:48:33.947Z,13.22
2019-04-11T09:51:29.032Z,14.07
2019-04-11T09:54:01.456Z,14.25
2019-04-11T09:56:48.749Z,12.63
2019-04-11T09:59:25.575Z,12.85
2019-04-11T10:02:11.859Z,15.00
2019-04-11T10:04:45.116Z,11.50
2019-04-11T10:07:28.127Z,12.40
2019-04-11T10:10:02.615Z,13.68
2019-04-11T10:12:40.593Z,11.47
2019-04-11T10:15:11.278Z,12.70
2019-04-11T10:17:42.711Z,12.80
2019-04-11T10:20:16.216Z,10.63
2019-04-11T10:22:52.243Z,9.80
2019-04-11T10:25:25.444Z,14.05
2019-04-11T10:28:17.523Z,12.63
2019-04-11T10:31:00.534Z,12.00
2019-04-11T10:33:35.533Z,13.40
2019-04-11T10:36:12.623Z,11.70
2019-04-11T10:38:44.730Z,11.38
2019-04-11T10:41:32.646Z,13.85
2019-04-11T10:44:02.012Z,15.03
2019-04-11T10:46:40.170Z,12.85
2019-04-11T10:49:13.748Z,9.93
2019-04-11T10:51:56.124Z,14.60
2019-04-11T10:54:27.967Z,8.58
2019-04-11T10:57:13.906Z,15.33
2019-04-11T10:59:44.918Z,14.35
2019-04-11T11:02:32.059Z,15.13
2019-04-11T11:05:03.549Z,11.35
2019-04-11T11:07:38.052Z,12.13
2019-04-11T11:10:09.505Z,14.80
2019-04-11T11:12:41.454Z,13.73
2019-04-11T11:15:13.581Z,14.10
2019-04-11T11:18:29.559Z,13.40
2019-04-11T11:20:55.198Z,11.78
2019-04-11T11:23:37.219Z,14.77
2019-04-11T11:26:09.014Z,15.68
2019-04-11T11:28:39.386Z,14.07
2019-04-11T11:31:15.994Z,14.78
2019-04-11T11:33:54.522Z,12.75
2019-04-11T11:36:41.627Z,12.28
2019-04-11T11:39:17.690Z,12.13
2019-04-11T11:41:48.960Z,10.47
2019-04-11T11:44:20.548Z,15.45
2019-04-11T11:47:07.958Z,13.67
2019-04-11T11:49:48.946Z,14.73
2019-04-11T11:52:15.162Z,9.60
2019-04-11T11:54:46.033Z,12.50
2019-04-11T11:57:16.646Z,11.78
2019-04-11T11:59:48.218Z,12.33
2019-04-11T12:02:21.081Z,12.77
2019-04-11T12:05:07.830Z,14.20
2019-04-11T12:07:43.285Z,14.78
2019-04-11T12:10:19.473Z,12.70
2019-04-11T12:12:53.981Z,13.38
2019-04-11T12:15:43.398Z,11.17
2019-04-11T12:18:16.939Z,13.97
2019-04-11T12:20:49.348Z,11.63
2019-04-11T12:23:20.031Z,9.47
2019-04-11T12:25:49.496Z,12.65
2019-04-11T12:28:38.629Z,14.07
2019-04-11T12:31:09.286Z,12.25
2019-04-11T12:33:39.796Z,10.30
2019-04-11T12:36:10.281Z,11.43
2019-04-11T12:38:56.130Z,9.93
2019-04-11T12:41:31.834Z,9.80
2019-04-11T12:44:04.207Z,11.57
2019-04-11T12:46:51.620Z,13.77
2019-04-11T12:52:08.071Z,11.40
2019-04-11T12:54:38.600Z,9.25
2019-04-11T12:57:25.506Z,10.60
2019-04-11T13:00:11.700Z,7.72
2019-04-11T13:02:58.415Z,9.47
2019-04-11T13:05:27.734Z,12.07
2019-04-11T13:08:15.030Z,8.35
2019-04-11T13:10:44.535Z,11.03
2019-04-11T13:13:23.788Z,11.25
2019-04-11T13:16:11.102Z,9.40
2019-04-11T13:18:48.170Z,9.90
2019-04-11T13:21:18.596Z,11.97
2019-04-11T13:23:54.963Z,10.60
2019-04-11T13:26:41.994Z,9.68
2019-04-11T13:29:21.615Z,6.90
2019-04-11T13:31:54.517Z,8.95
2019-04-11T13:34:30.347Z,12.07
2019-04-11T13:37:16.964Z,10.00
2019-04-11T13:39:47.374Z,9.40
2019-04-11T13:42:34.395Z,8.80
2019-04-11T13:45:03.511Z,8.43
2019-04-11T13:47:52.240Z,12.73
2019-04-11T13:50:22.768Z,9.27
2019-04-11T13:53:08.519Z,10.43
2019-04-11T13:55:37.042Z,11.28
2019-04-11T13:58:22.719Z,10.50
2019-04-11T14:00:51.607Z,10.37
2019-04-11T14:03:24.486Z,9.45
2019-04-11T14:05:53.706Z,8.33
2019-04-11T14:08:27.898Z,9.25
2019-04-11T14:11:16.369Z,10.55
2019-04-11T14:13:45.334Z,14.63
2019-04-11T14:16:23.992Z,11.23
2019-04-11T14:18:56.758Z,8.63
2019-04-11T14:21:30.266Z,12.50
2019-04-11T14:24:12.967Z,6.78
2019-04-11T14:26:43.062Z,8.05
2019-04-11T14:29:13.515Z,13.80
2019-04-11T14:31:58.872Z,7.67
2019-04-11T14:34:46.205Z,8.80
2019-04-11T14:37:38.577Z,12.47
2019-04-11T14:40:06.079Z,12.00
2019-04-11T14:42:42.158Z,10.25
2019-04-11T14:45:28.033Z,6.90
2019-04-11T14:48:15.475Z,8.10
2019-04-11T14:51:04.116Z,9.27
2019-04-11T14:53:47.149Z,8.18
2019-04-11T14:56:21.789Z,10.40
2019-04-11T14:58:49.416Z,7.97
2019-04-11T15:01:19.855Z,7.13
2019-04-11T15:04:02.682Z,10.18
2019-04-11T15:06:33.520Z,12.18
2019-04-11T15:09:10.365Z,8.13
2019-04-11T15:11:47.895Z,11.70
2019-04-11T15:14:18.806Z,8.65
2019-04-11T15:16:51.672Z,8.23
2019-04-11T15:19:20.569Z,11.68
2019-04-11T15:22:09.010Z,7.72
2019-04-11T15:24:39.134Z,11.28
2019-04-11T15:27:12.424Z,9.98
2019-04-11T15:29:41.438Z,8.85
2019-04-11T15:32:28.749Z,14.20
2019-04-11T15:34:57.438Z,10.20
2019-04-11T15:37:40.030Z,16.00
2019-04-11T15:40:10.654Z,11.80
2019-04-11T15:42:47.454Z,10.90
2019-04-11T15:45:17.854Z,12.18
2019-04-11T15:47:49.395Z,9.03
2019-04-11T15:50:37.501Z,10.30
2019-04-11T15:53:07.298Z,13.28
2019-04-11T15:55:54.906Z,9.10
2019-04-11T15:58:25.410Z,7.93
2019-04-11T16:00:56.147Z,13.10
2019-04-11T16:03:25.141Z,11.20
2019-04-11T16:06:07.041Z,10.75
2019-04-11T16:08:39.478Z,9.17
2019-04-11T16:11:18.425Z,9.80
2019-04-11T16:13:51.728Z,10.82
2019-04-11T16:16:28.104Z,8.08
2019-04-11T16:19:17.095Z,10.98
2019-04-11T16:22:03.687Z,10.38
2019-04-11T16:24:39.242Z,11.03
2019-04-11T16:27:20.189Z,10.23
2019-04-11T16:29:53.408Z,8.75
2019-04-11T16:32:22.888Z,11.53
2019-04-11T16:35:01.190Z,9.18
2019-04-11T16:40:12.859Z,12.43
2019-04-11T16:42:47.007Z,12.53
2019-04-11T16:45:34.226Z,14.80
2019-04-11T16:48:07.212Z,11.13
2019-04-11T16:50:37.434Z,12.03
2019-04-11T16:53:10.505Z,9.15
2019-04-11T16:55:43.669Z,11.93
2019-04-11T16:58:19.272Z,9.80
2019-04-11T17:00:52.549Z,9.73
2019-04-11T17:03:26.412Z,10.80
2019-04-11T17:06:03.183Z,12.55
2019-04-11T17:08:36.726Z,8.63
2019-04-11T17:11:10.816Z,16.02
2019-04-11T17:13:39.828Z,10.20
2019-04-11T17:16:13.178Z,13.38
2019-04-11T17:18:42.090Z,12.97
2019-04-11T17:21:13.082Z,10.43
2019-04-11T17:23:46.818Z,11.23
2019-04-11T17:26:13.979Z,10.37
2019-04-11T17:28:43.488Z,13.05
2019-04-11T17:31:12.391Z,14.63
2019-04-11T17:33:41.796Z,12.37
2019-04-11T17:36:12.769Z,12.20
2019-04-11T17:38:41.399Z,14.70
2019-04-11T17:41:15.017Z,11.63
2019-04-11T17:43:46.775Z,11.18
2019-04-11T17:46:14.115Z,12.47
2019-04-11T17:48:42.999Z,9.90
2019-04-11T17:51:12.824Z,11.83
2019-04-11T17:53:41.898Z,11.45
2019-04-11T17:56:10.582Z,11.10
2019-04-11T17:58:39.578Z,11.45
2019-04-11T18:01:08.166Z,13.70
2019-04-11T18:03:37.360Z,11.53
2019-04-11T18:06:06.967Z,12.37
2019-04-11T18:08:35.816Z,11.03
2019-04-11T18:11:06.910Z,15.06
2019-04-11T18:13:35.885Z,13.85
2019-04-11T18:16:08.067Z,11.66
2019-04-11T18:18:39.844Z,14.25
2019-04-11T18:21:08.587Z,13.53
2019-04-11T18:23:38.606Z,12.07
2019-04-11T18:26:07.490Z,16.12
2019-04-11T18:28:36.192Z,12.70
2019-04-11T18:31:06.490Z,15.64
2019-04-11T18:33:35.337Z,12.20
2019-04-11T18:36:04.494Z,7.95
2019-04-11T18:38:33.082Z,14.25
2019-04-11T18:41:01.666Z,11.88
2019-04-11T18:43:30.563Z,10.95
2019-04-11T18:45:59.123Z,13.98
2019-04-11T18:48:28.237Z,16.05
2019-04-11T18:50:57.412Z,12.88
2019-04-11T18:53:26.420Z,18.00
2019-04-11T18:55:55.689Z,16.67
2019-04-11T18:58:24.696Z,16.42
2019-04-11T19:00:54.730Z,17.63
2019-04-11T19:03:35.751Z,15.70
2019-04-11T19:05:57.821Z,17.00
2019-04-11T19:08:26.721Z,15.47
2019-04-11T19:10:57.557Z,18.63
2019-04-11T19:13:27.163Z,17.10
2019-04-11T19:15:56.158Z,16.77
2019-04-11T19:18:25.572Z,16.53
2019-04-11T19:20:54.685Z,16.80
2019-04-11T19:23:25.206Z,15.40
2019-04-11T19:25:57.960Z,16.30
2019-04-11T19:28:26.831Z,17.33
2019-04-11T19:30:57.278Z,18.23
2019-04-11T19:33:26.288Z,17.10
2019-04-11T19:35:55.267Z,17.23
2019-04-11T19:38:26.712Z,16.27
2019-04-11T19:40:55.680Z,15.28
2019-04-11T19:43:25.098Z,19.13
2019-04-11T19:45:53.945Z,14.73
2019-04-11T19:48:25.234Z,16.37
2019-04-11T19:50:58.629Z,18.27
2019-04-11T19:53:25.967Z,20.23
2019-04-11T19:55:57.898Z,19.82
2019-04-11T19:58:28.389Z,19.87
2019-04-11T20:00:57.600Z,19.37
2019-04-11T20:03:26.743Z,19.45
2019-04-11T20:05:57.371Z,21.80
2019-04-11T20:08:27.715Z,21.40
2019-04-11T20:11:01.083Z,22.90
2019-04-11T20:13:32.019Z,22.80
2019-04-11T20:15:59.190Z,22.62
2019-04-11T20:18:28.117Z,21.17
2019-04-11T20:20:57.155Z,22.75
2019-04-11T20:23:26.034Z,23.60
2019-04-11T20:25:55.568Z,23.80
2019-04-11T20:28:26.676Z,24.27
2019-04-11T20:30:56.915Z,24.45
2019-04-11T20:33:27.393Z,25.97
2019-04-11T20:35:56.224Z,24.50
2019-04-11T20:38:25.115Z,27.03
2019-04-11T20:40:54.330Z,25.90
2019-04-11T20:43:25.492Z,25.93
2019-04-11T20:45:54.474Z,24.75
2019-04-11T20:48:23.252Z,25.13
2019-04-11T20:50:56.339Z,23.27
2019-04-11T20:53:25.308Z,23.70
2019-04-11T20:55:54.913Z,23.22
2019-04-11T20:58:27.600Z,23.23
2019-04-11T21:00:55.974Z,22.73
2019-04-11T21:03:24.760Z,23.40
2019-04-11T21:05:53.661Z,23.17
2019-04-11T21:08:22.842Z,23.00
2019-04-11T21:10:51.730Z,22.47
2019-04-11T21:13:20.645Z,21.50
2019-04-11T21:15:49.509Z,23.03
2019-04-11T21:18:18.403Z,23.90
2019-04-11T21:20:47.596Z,24.80
2019-04-11T21:23:24.432Z,24.60
2019-04-11T21:25:47.419Z,23.57
2019-04-11T21:28:16.312Z,25.57
2019-04-11T21:30:45.198Z,24.93
2019-04-11T21:33:13.783Z,24.47
2019-04-11T21:35:42.675Z,25.17
2019-04-11T21:38:11.559Z,25.63
2019-04-11T21:40:40.456Z,24.47
2019-04-11T21:43:09.334Z,25.72
2019-04-11T21:45:38.231Z,24.60
2019-04-11T21:48:07.004Z,24.43
2019-04-11T21:50:40.385Z,21.73
2019-04-11T21:53:07.671Z,24.80
2019-04-11T21:55:36.546Z,23.73
2019-04-11T21:58:06.059Z,23.80
2019-04-11T22:00:39.752Z,22.23
2019-04-11T22:03:10.282Z,21.97
2019-04-11T22:05:39.374Z,23.93
2019-04-11T22:08:07.954Z,22.48
2019-04-11T22:10:40.026Z,23.17
2019-04-11T22:13:09.800Z,22.53
2019-04-11T22:15:42.006Z,21.30
2019-04-11T22:18:07.926Z,22.87
2019-04-11T22:20:36.816Z,20.67
2019-04-11T22:23:06.538Z,23.27
2019-04-11T22:25:35.917Z,22.73
2019-04-11T22:28:05.526Z,23.00
2019-04-11T22:30:34.718Z,23.15
2019-04-11T22:33:04.939Z,23.10
2019-04-11T22:35:34.133Z,25.08
2019-04-11T22:38:02.738Z,23.55
2019-04-11T22:40:31.956Z,24.25
2019-04-11T22:43:02.339Z,23.40
2019-04-11T22:45:31.538Z,25.52
2019-04-11T22:48:00.534Z,22.93
2019-04-11T22:50:29.421Z,23.83
2019-04-11T22:52:58.633Z,23.27
2019-04-11T22:55:27.914Z,25.63
2019-04-11T22:57:56.800Z,24.87
2019-04-11T23:00:30.942Z,25.52
2019-04-11T23:03:10.470Z,24.77
2019-04-11T23:05:39.344Z,25.73
2019-04-11T23:08:07.927Z,28.10
2019-04-11T23:10:36.818Z,28.40
2019-04-11T23:13:06.625Z,28.17
2019-04-11T23:15:35.511Z,27.57
2019-04-11T23:18:05.531Z,28.50
2019-04-11T23:20:34.721Z,27.07
2019-04-11T23:23:03.822Z,28.15
2019-04-11T23:25:32.707Z,26.73
2019-04-11T23:28:01.603Z,26.27
2019-04-11T23:30:30.302Z,25.92
2019-04-11T23:32:59.086Z,26.07
2019-04-11T23:35:27.958Z,25.73
2019-04-11T23:37:56.543Z,24.40
2019-04-11T23:40:25.244Z,25.50
2019-04-11T23:42:56.911Z,24.03
2019-04-11T23:45:27.715Z,26.17
2019-04-11T23:47:56.294Z,26.50
2019-04-11T23:50:25.850Z,26.00
2019-04-11T23:52:57.830Z,25.45
2019-04-11T23:55:25.190Z,27.05
2019-04-11T23:57:54.534Z,27.37
